Time,TemperatureF,DewpointF,PressureIn,WindDirection,WindDirectionDegrees,WindSpeedMPH,WindSpeedGustMPH,Humidity,HourlyPrecipIn,Conditions,Clouds,dailyrainin,SoftwareType,DateUTC
2013-08-20 00:03:00,65.8,49.0,29.89,East,96,0.0,-999.0,56,-99.99,,,0.00,weatherlink.com 1.10,2013-08-20 07:03:00,
2013-08-20 00:18:00,66.6,47.0,29.89,East,84,0.0,-999.0,49,-99.99,,,0.00,weatherlink.com 1.10,2013-08-20 07:18:00,
2013-08-20 00:33:00,67.7,45.0,29.90,East,84,0.0,-999.0,45,-99.99,,,0.00,weatherlink.com 1.10,2013-08-20 07:33:00,
2013-08-20 00:48:00,68.3,46.0,29.90,East,84,0.0,-999.0,45,-99.99,,,0.00,weatherlink.com 1.10,2013-08-20 07:48:00,
2013-08-20 01:03:00,69.8,46.0,29.89,East,82,0.0,-999.0,42,-99.99,,,0.00,weatherlink.com 1.10,2013-08-20 08:03:00,
2013-08-20 01:18:00,70.4,45.0,29.89,East,82,0.0,-999.0,41,-99.99,,,0.00,weatherlink.com 1.10,2013-08-20 08:18:00,
2013-08-20 01:33:00,71.1,45.0,29.88,East,82,0.0,-999.0,40,-99.99,,,0.00,weatherlink.com 1.10,2013-08-20 08:33:00,
2013-08-20 01:48:00,71.7,45.0,29.88,East,82,0.0,-999.0,39,-99.99,,,0.00,weatherlink.com 1.10,2013-08-20 08:48:00,
2013-08-20 02:03:00,72.0,46.0,29.87,East,82,0.0,-999.0,39,-99.99,,,0.00,weatherlink.com 1.10,2013-08-20 09:03:00,
2013-08-20 02:18:00,72.2,46.0,29.87,East,82,0.0,-999.0,39,-99.99,,,0.00,weatherlink.com 1.10,2013-08-20 09:18:00,
2013-08-20 02:33:00,72.5,45.0,29.87,East,82,0.0,-999.0,38,-99.99,,,0.00,weatherlink.com 1.10,2013-08-20 09:33:00,
2013-08-20 02:48:00,72.5,45.0,29.88,East,82,0.0,-999.0,38,-99.99,,,0.00,weatherlink.com 1.10,2013-08-20 09:48:00,
2013-08-20 03:03:00,72.4,45.0,29.87,East,82,0.0,-999.0,38,-99.99,,,0.00,weatherlink.com 1.10,2013-08-20 10:03:00,
2013-08-20 03:18:00,71.8,46.0,29.87,East,82,0.0,-999.0,40,-99.99,,,0.00,weatherlink.com 1.10,2013-08-20 10:18:00,
2013-08-20 03:33:00,70.6,44.0,29.88,East,82,0.0,-999.0,39,-99.99,,,0.00,weatherlink.com 1.10,2013-08-20 10:33:00,
2013-08-20 03:48:00,69.5,44.0,29.87,East,82,0.0,-999.0,40,-99.99,,,0.00,weatherlink.com 1.10,2013-08-20 10:48:00,
2013-08-20 04:03:00,69.3,46.0,29.87,East,82,0.0,-999.0,43,-99.99,,,0.00,weatherlink.com 1.10,2013-08-20 11:03:00,
2013-08-20 04:18:00,68.8,46.0,29.88,East,82,0.0,-999.0,44,-99.99,,,0.00,weatherlink.com 1.10,2013-08-20 11:18:00,
2013-08-20 04:33:00,66.5,45.0,29.88,East,82,0.0,-999.0,46,-99.99,,,0.00,weatherlink.com 1.10,2013-08-20 11:33:00,
2013-08-20 04:48:00,65.7,44.0,29.87,East,82,0.0,-999.0,46,-99.99,,,0.00,weatherlink.com 1.10,2013-08-20 11:48:00,
2013-08-20 05:03:00,65.5,45.0,29.88,East,82,0.0,-999.0,47,-99.99,,,0.00,weatherlink.com 1.10,2013-08-20 12:03:00,
2013-08-20 05:18:00,65.3,44.0,29.88,East,82,0.0,-999.0,47,-99.99,,,0.00,weatherlink.com 1.10,2013-08-20 12:18:00,
2013-08-20 05:33:00,65.3,44.0,29.89,East,82,0.0,-999.0,47,-99.99,,,0.00,weatherlink.com 1.10,2013-08-20 12:33:00,
2013-08-20 05:48:00,65.3,44.0,29.89,East,82,0.0,-999.0,47,-99.99,,,0.00,weatherlink.com 1.10,2013-08-20 12:48:00,
2013-08-20 06:03:00,65.4,45.0,29.90,East,82,0.0,-999.0,48,-99.99,,,0.00,weatherlink.com 1.10,2013-08-20 13:03:00,
2013-08-20 06:18:00,65.0,45.0,29.90,East,82,0.0,-999.0,48,-99.99,,,0.00,weatherlink.com 1.10,2013-08-20 13:18:00,
2013-08-20 06:33:00,64.9,45.0,29.90,East,82,0.0,-999.0,49,-99.99,,,0.00,weatherlink.com 1.10,2013-08-20 13:33:00,
2013-08-20 06:48:00,64.5,46.0,29.90,East,82,0.0,-999.0,51,-99.99,,,0.00,weatherlink.com 1.10,2013-08-20 13:48:00,
2013-08-20 07:03:00,64.7,46.0,29.91,East,82,0.0,-999.0,52,-99.99,,,0.00,weatherlink.com 1.10,2013-08-20 14:03:00,
2013-08-20 07:18:00,64.7,46.0,29.91,East,82,0.0,-999.0,52,-99.99,,,0.00,weatherlink.com 1.10,2013-08-20 14:18:00,
2013-08-20 07:33:00,64.4,46.0,29.91,East,82,0.0,-999.0,51,-99.99,,,0.00,weatherlink.com 1.10,2013-08-20 14:33:00,
2013-08-20 07:48:00,63.6,50.0,29.91,East,80,0.0,-999.0,61,-99.99,,,0.00,weatherlink.com 1.10,2013-08-20 14:48:00,
2013-08-20 08:03:00,63.2,50.0,29.92,East,80,0.0,-999.0,63,-99.99,,,0.00,weatherlink.com 1.10,2013-08-20 15:03:00,
2013-08-20 08:18:00,64.9,48.0,29.92,East,84,0.0,-999.0,54,-99.99,,,0.00,weatherlink.com 1.10,2013-08-20 15:18:00,
2013-08-20 08:33:00,68.0,47.0,29.92,East,86,0.0,-999.0,47,-99.99,,,0.00,weatherlink.com 1.10,2013-08-20 15:33:00,
2013-08-20 08:48:00,69.1,48.0,29.91,East,87,0.0,-999.0,48,-99.99,,,0.00,weatherlink.com 1.10,2013-08-20 15:48:00,
2013-08-20 09:03:00,69.6,51.0,29.92,East,88,0.0,-999.0,52,-99.99,,,0.00,weatherlink.com 1.10,2013-08-20 16:03:00,
2013-08-20 09:18:00,67.9,48.0,29.91,East,99,0.0,-999.0,50,-99.99,,,0.00,weatherlink.com 1.10,2013-08-20 16:18:00,
2013-08-20 09:33:00,63.5,51.0,29.92,East,95,0.0,-999.0,63,-99.99,,,0.00,weatherlink.com 1.10,2013-08-20 16:33:00,
2013-08-20 09:48:00,60.3,50.0,29.93,ENE,78,0.0,-999.0,68,-99.99,,,0.00,weatherlink.com 1.10,2013-08-20 16:48:00,
2013-08-20 10:03:00,66.2,54.0,29.93,East,80,0.0,-999.0,64,-99.99,,,0.00,weatherlink.com 1.10,2013-08-20 17:03:00,
2013-08-20 10:18:00,65.6,53.0,29.92,ENE,63,0.0,-999.0,63,-99.99,,,0.00,weatherlink.com 1.10,2013-08-20 17:18:00,
2013-08-20 10:33:00,70.5,48.0,29.93,SE,127,2.0,-999.0,45,-99.99,,,0.00,weatherlink.com 1.10,2013-08-20 17:33:00,
2013-08-20 10:48:00,68.8,54.0,29.93,SE,124,0.0,-999.0,59,-99.99,,,0.00,weatherlink.com 1.10,2013-08-20 17:48:00,
2013-08-20 11:18:00,70.9,48.0,29.93,ENE,57,0.0,-999.0,45,-99.99,,,0.00,weatherlink.com 1.10,2013-08-20 18:18:00,
2013-08-20 11:33:00,69.2,54.0,29.92,SSE,148,0.0,-999.0,58,-99.99,,,0.00,weatherlink.com 1.10,2013-08-20 18:33:00,
2013-08-20 12:03:00,72.5,46.0,29.92,East,89,0.0,-999.0,39,-99.99,,,0.00,weatherlink.com 1.10,2013-08-20 19:03:00,
2013-08-20 12:18:00,73.0,45.0,29.92,East,90,0.0,-999.0,37,-99.99,,,0.00,weatherlink.com 1.10,2013-08-20 19:18:00,
2013-08-20 12:33:00,73.8,48.0,29.91,ESE,119,0.0,-999.0,40,-99.99,,,0.00,weatherlink.com 1.10,2013-08-20 19:33:00,
2013-08-20 12:48:00,72.1,54.0,29.91,ESE,118,0.0,-999.0,54,-99.99,,,0.00,weatherlink.com 1.10,2013-08-20 19:48:00,
2013-08-20 13:03:00,66.1,52.0,29.91,WSW,246,0.0,-999.0,61,-99.99,,,0.00,weatherlink.com 1.10,2013-08-20 20:03:00,
2013-08-20 13:18:00,65.2,53.0,29.91,SE,125,1.0,-999.0,64,-99.99,,,0.00,weatherlink.com 1.10,2013-08-20 20:18:00,
2013-08-20 13:33:00,65.8,53.0,29.91,SW,236,0.0,-999.0,64,-99.99,,,0.00,weatherlink.com 1.10,2013-08-20 20:33:00,
2013-08-20 13:48:00,67.0,53.0,29.91,ESE,118,1.0,-999.0,62,-99.99,,,0.00,weatherlink.com 1.10,2013-08-20 20:48:00,
2013-08-20 14:03:00,64.0,52.0,29.90,West,276,1.0,-999.0,65,-99.99,,,0.00,weatherlink.com 1.10,2013-08-20 21:03:00,
2013-08-20 14:18:00,64.8,52.0,29.90,WSW,246,0.0,-999.0,64,-99.99,,,0.00,weatherlink.com 1.10,2013-08-20 21:18:00,
2013-08-20 14:33:00,65.0,53.0,29.90,NW,313,0.0,-999.0,66,-99.99,,,0.00,weatherlink.com 1.10,2013-08-20 21:33:00,
2013-08-20 14:48:00,63.4,52.0,29.90,NNE,19,0.0,-999.0,67,-99.99,,,0.00,weatherlink.com 1.10,2013-08-20 21:48:00,
2013-08-20 15:03:00,69.5,55.0,29.89,East,86,1.0,-999.0,61,-99.99,,,0.00,weatherlink.com 1.10,2013-08-20 22:03:00,
2013-08-20 15:18:00,64.5,53.0,29.90,SE,138,0.0,-999.0,66,-99.99,,,0.00,weatherlink.com 1.10,2013-08-20 22:18:00,
2013-08-20 15:48:00,63.2,52.0,29.89,SW,236,0.0,-999.0,66,-99.99,,,0.00,weatherlink.com 1.10,2013-08-20 22:48:00,
2013-08-20 16:03:00,61.0,50.0,29.90,ENE,67,2.0,-999.0,68,-99.99,,,0.00,weatherlink.com 1.10,2013-08-20 23:03:00,
2013-08-20 16:18:00,72.3,50.0,29.89,ESE,123,3.0,-999.0,45,-99.99,,,0.00,weatherlink.com 1.10,2013-08-20 23:18:00,
2013-08-20 16:33:00,73.3,40.0,29.89,East,97,0.0,-999.0,30,-99.99,,,0.00,weatherlink.com 1.10,2013-08-20 23:33:00,
2013-08-20 16:48:00,74.3,42.0,29.89,ESE,111,0.0,-999.0,31,-99.99,,,0.00,weatherlink.com 1.10,2013-08-20 23:48:00,
2013-08-20 17:03:00,75.0,43.0,29.89,ESE,110,1.0,-999.0,32,-99.99,,,0.00,weatherlink.com 1.10,2013-08-21 00:03:00,
2013-08-20 17:18:00,73.3,42.0,29.89,ESE,116,0.0,-999.0,32,-99.99,,,0.00,weatherlink.com 1.10,2013-08-21 00:18:00,
2013-08-20 17:33:00,73.5,43.0,29.90,ESE,121,0.0,-999.0,33,-99.99,,,0.00,weatherlink.com 1.10,2013-08-21 00:33:00,
2013-08-20 17:48:00,71.3,46.0,29.89,East,94,0.0,-999.0,40,-99.99,,,0.00,weatherlink.com 1.10,2013-08-21 00:48:00,
2013-08-20 18:03:00,69.2,49.0,29.89,ENE,60,0.0,-999.0,49,-99.99,,,0.00,weatherlink.com 1.10,2013-08-21 01:03:00,
2013-08-20 18:18:00,64.2,51.0,29.89,ESE,103,0.0,-999.0,63,-99.99,,,0.00,weatherlink.com 1.10,2013-08-21 01:18:00,
2013-08-20 18:33:00,60.2,49.0,29.89,NE,42,0.0,-999.0,66,-99.99,,,0.00,weatherlink.com 1.10,2013-08-21 01:33:00,
2013-08-20 18:48:00,60.0,49.0,29.89,NE,41,0.0,-999.0,68,-99.99,,,0.00,weatherlink.com 1.10,2013-08-21 01:48:00,
2013-08-20 19:03:00,61.9,50.0,29.88,NE,41,0.0,-999.0,66,-99.99,,,0.00,weatherlink.com 1.10,2013-08-21 02:03:00,
2013-08-20 19:18:00,58.4,48.0,29.89,NE,41,0.0,-999.0,68,-99.99,,,0.00,weatherlink.com 1.10,2013-08-21 02:18:00,
2013-08-20 19:33:00,56.8,47.0,29.89,NE,41,0.0,-999.0,69,-99.99,,,0.00,weatherlink.com 1.10,2013-08-21 02:33:00,
2013-08-20 19:48:00,55.5,46.0,29.90,NE,44,0.0,-999.0,70,-99.99,,,0.00,weatherlink.com 1.10,2013-08-21 02:48:00,
2013-08-20 20:03:00,54.7,45.0,29.90,NE,44,0.0,-999.0,70,-99.99,,,0.00,weatherlink.com 1.10,2013-08-21 03:03:00,
2013-08-20 20:18:00,54.2,45.0,29.90,NE,44,0.0,-999.0,70,-99.99,,,0.00,weatherlink.com 1.10,2013-08-21 03:18:00,
2013-08-20 20:33:00,53.9,44.0,29.90,NE,44,0.0,-999.0,70,-99.99,,,0.00,weatherlink.com 1.10,2013-08-21 03:33:00,
2013-08-20 20:48:00,53.3,44.0,29.91,NE,44,0.0,-999.0,70,-99.99,,,0.00,weatherlink.com 1.10,2013-08-21 03:48:00,
2013-08-20 21:03:00,52.8,43.0,29.91,NE,44,0.0,-999.0,70,-99.99,,,0.00,weatherlink.com 1.10,2013-08-21 04:03:00,
2013-08-20 21:18:00,55.5,46.0,29.91,NE,44,0.0,-999.0,70,-99.99,,,0.00,weatherlink.com 1.10,2013-08-21 04:18:00,
2013-08-20 21:33:00,55.1,45.0,29.92,NE,44,0.0,-999.0,70,-99.99,,,0.00,weatherlink.com 1.10,2013-08-21 04:33:00,
2013-08-20 21:48:00,54.2,45.0,29.92,NE,44,0.0,-999.0,70,-99.99,,,0.00,weatherlink.com 1.10,2013-08-21 04:48:00,
2013-08-20 22:03:00,53.1,44.0,29.92,NE,44,0.0,-999.0,70,-99.99,,,0.00,weatherlink.com 1.10,2013-08-21 05:03:00,
2013-08-20 22:18:00,53.6,44.0,29.92,ENE,78,0.0,-999.0,70,-99.99,,,0.00,weatherlink.com 1.10,2013-08-21 05:18:00,
2013-08-20 22:33:00,52.9,43.0,29.92,ENE,78,0.0,-999.0,70,-99.99,,,0.00,weatherlink.com 1.10,2013-08-21 05:33:00,
2013-08-20 22:48:00,52.0,42.0,29.92,ENE,78,0.0,-999.0,70,-99.99,,,0.00,weatherlink.com 1.10,2013-08-21 05:48:00,
2013-08-20 23:03:00,52.2,43.0,29.93,NE,53,0.0,-999.0,70,-99.99,,,0.00,weatherlink.com 1.10,2013-08-21 06:03:00,
2013-08-20 23:18:00,51.8,42.0,29.93,NE,46,0.0,-999.0,70,-99.99,,,0.00,weatherlink.com 1.10,2013-08-21 06:18:00,
2013-08-20 23:33:00,51.4,42.0,29.92,NE,46,0.0,-999.0,70,-99.99,,,0.00,weatherlink.com 1.10,2013-08-21 06:33:00,
2013-08-20 23:48:00,51.1,42.0,29.93,NE,45,0.0,-999.0,71,-99.99,,,0.00,weatherlink.com 1.10,2013-08-21 06:48:00,